Time;durP1;ratioP1;P1;durP2;ratioP2;P2;SDS_P1;SDS_P2;PMS_P1;PMS_P2;Temp;Humidity;BMP_temperature;BMP_pressure;BME280_temperature;BME280_humidity;BME280_pressure;Samples;Min_cycle;Max_cycle;Signal;HPM_P1;HPM_P2
2021/08/02 00:00:24;;;;;;;8.18;6.30;;;24.60;72.70;;;;;;5004391;28;20192;-72
2021/08/02 00:02:50;;;;;;;7.80;7.07;;;24.50;71.30;;;;;;5006944;28;20212;-73
2021/08/02 00:05:17;;;;;;;12.07;6.40;;;24.40;70.70;;;;;;5004982;28;20184;-73
2021/08/02 00:07:48;;;;;;;7.18;6.28;;;24.30;71.60;;;;;;5009864;28;20260;-73
2021/08/02 00:10:16;;;;;;;7.38;6.63;;;24.30;71.30;;;;;;5000470;28;20283;-72
2021/08/02 00:12:55;;;;;;;9.05;6.35;;;24.30;71.00;;;;;;5006364;28;20663;-72
2021/08/02 00:15:21;;;;;;;7.15;6.20;;;24.30;70.90;;;;;;4998764;28;20193;-72
2021/08/02 00:17:48;;;;;;;11.52;6.03;;;24.30;71.30;;;;;;5006590;28;20239;-73
2021/08/02 00:20:18;;;;;;;6.63;6.03;;;24.30;71.60;;;;;;5006680;28;20565;-73
2021/08/02 00:22:44;;;;;;;7.03;6.05;;;24.20;71.80;;;;;;5006912;28;20250;-72
2021/08/02 00:25:11;;;;;;;7.32;6.53;;;24.20;72.00;;;;;;5000344;28;20185;-72
2021/08/02 00:27:37;;;;;;;6.13;5.72;;;24.20;72.40;;;;;;5009590;28;20185;-72
2021/08/02 00:30:05;;;;;;;7.03;6.20;;;24.20;72.40;;;;;;4998473;28;20180;-72
2021/08/02 00:32:33;;;;;;;7.10;6.45;;;24.20;72.40;;;;;;5001966;28;20211;-72
2021/08/02 00:35:00;;;;;;;9.52;6.28;;;24.20;72.50;;;;;;5008762;28;20177;-73
2021/08/02 00:37:40;;;;;;;6.75;6.07;;;24.20;72.80;;;;;;5007487;28;20632;-72
2021/08/02 00:40:39;;;;;;;9.73;6.05;;;24.10;73.40;;;;;;5003715;28;20195;-72
2021/08/02 00:43:36;;;;;;;6.93;6.40;;;24.10;74.10;;;;;;5005208;28;20251;-73
2021/08/02 00:46:02;;;;;;;6.35;5.82;;;24.00;75.10;;;;;;5002545;28;20215;-73
2021/08/02 00:48:31;;;;;;;6.88;6.05;;;24.00;72.80;;;;;;5002995;28;20185;-73
2021/08/02 00:51:04;;;;;;;9.75;5.57;;;23.90;72.20;;;;;;5006267;28;20660;-72
2021/08/02 00:53:30;;;;;;;8.43;6.05;;;23.90;71.90;;;;;;5007474;28;20263;-73
2021/08/02 00:56:01;;;;;;;7.03;6.43;;;23.90;72.30;;;;;;4996615;28;20202;-72
2021/08/02 00:58:29;;;;;;;7.40;6.63;;;23.90;73.00;;;;;;4994362;28;20186;-72
2021/08/02 01:00:56;;;;;;;7.13;6.00;;;23.80;72.90;;;;;;5003506;28;20193;-73
2021/08/02 01:03:23;;;;;;;7.35;6.68;;;23.80;72.80;;;;;;5003879;28;20210;-72
2021/08/02 01:05:52;;;;;;;7.30;6.25;;;23.80;73.10;;;;;;5003929;28;20209;-72
2021/08/02 01:08:24;;;;;;;9.95;6.53;;;23.80;72.80;;;;;;4995730;28;20274;-72
2021/08/02 01:10:53;;;;;;;6.20;5.68;;;23.80;73.00;;;;;;5008414;28;20673;-72
2021/08/02 01:13:22;;;;;;;6.93;5.65;;;23.80;72.80;;;;;;5003010;28;20192;-72
2021/08/02 01:15:52;;;;;;;6.40;5.78;;;23.80;72.70;;;;;;5004708;28;20191;-72
2021/08/02 01:18:19;;;;;;;9.18;6.45;;;23.80;72.80;;;;;;5001810;28;20216;-73
2021/08/02 01:20:51;;;;;;;6.88;6.18;;;23.70;73.60;;;;;;5004218;28;20183;-73
2021/08/02 01:23:19;;;;;;;5.97;5.57;;;23.70;74.50;;;;;;5002614;28;20335;-73
2021/08/02 01:25:44;;;;;;;6.40;5.82;;;23.70;74.00;;;;;;5003298;28;20592;-73
2021/08/02 01:28:33;;;;;;;8.85;6.05;;;23.70;74.40;;;;;;5009074;28;20183;-73
2021/08/02 01:31:01;;;;;;;6.80;6.13;;;23.70;76.10;;;;;;4966497;28;20261;-73
2021/08/02 01:33:29;;;;;;;9.60;6.53;;;23.60;74.60;;;;;;4964312;28;20202;-73
2021/08/02 01:36:00;;;;;;;7.05;6.05;;;23.60;74.50;;;;;;4960711;28;20207;-72
2021/08/02 01:38:28;;;;;;;7.85;5.32;;;23.60;74.60;;;;;;4964673;28;20187;-73
2021/08/02 01:40:54;;;;;;;6.72;5.75;;;23.50;74.50;;;;;;4962803;28;20186;-72
2021/08/02 01:43:21;;;;;;;7.03;6.25;;;23.50;74.60;;;;;;4962585;28;20195;-72
2021/08/02 01:46:17;;;;;;;10.00;5.88;;;23.50;74.50;;;;;;4959784;28;20271;-73
2021/08/02 01:48:48;;;;;;;5.90;5.35;;;23.50;74.90;;;;;;4946588;28;20229;-73
2021/08/02 01:51:36;;;;;;;11.05;4.90;;;23.30;76.10;;;;;;4965736;28;20284;-73
2021/08/02 01:54:18;;;;;;;7.70;5.05;;;23.30;73.70;;;;;;4963562;28;20190;-73
2021/08/02 01:56:55;;;;;;;9.38;5.50;;;23.30;73.60;;;;;;4963783;28;20220;-73
2021/08/02 01:59:45;;;;;;;9.52;5.18;;;23.30;73.10;;;;;;4961328;28;20200;-73
2021/08/02 02:02:14;;;;;;;9.52;5.53;;;23.30;74.80;;;;;;4965657;28;20389;-73
2021/08/02 02:05:22;;;;;;;7.82;5.07;;;23.30;73.80;;;;;;4966151;28;20194;-73
2021/08/02 02:08:08;;;;;;;7.28;5.07;;;23.20;73.70;;;;;;4946488;28;20203;-73
2021/08/02 02:10:40;;;;;;;5.10;4.80;;;23.20;75.30;;;;;;4923525;29;20282;-74
2021/08/02 02:13:12;;;;;;;7.53;5.40;;;23.20;74.50;;;;;;4924585;29;20306;-74
2021/08/02 02:15:40;;;;;;;5.85;5.15;;;23.20;73.90;;;;;;4919791;29;20199;-73
2021/08/02 02:18:08;;;;;;;11.32;5.78;;;23.10;74.20;;;;;;4919878;29;20297;-73
2021/08/02 02:20:35;;;;;;;10.65;5.13;;;23.10;74.20;;;;;;4924743;29;20198;-73
2021/08/02 02:23:02;;;;;;;5.88;5.30;;;23.10;74.20;;;;;;4912030;29;20228;-73
2021/08/02 02:25:28;;;;;;;5.93;5.43;;;23.10;73.90;;;;;;4925680;29;20252;-73
2021/08/02 02:27:54;;;;;;;7.13;5.88;;;23.10;74.00;;;;;;4922085;29;20200;-73
2021/08/02 02:30:20;;;;;;;5.55;5.20;;;23.00;75.20;;;;;;4925626;29;20192;-73
2021/08/02 02:32:46;;;;;;;5.45;4.90;;;22.90;74.40;;;;;;4917191;29;20199;-73
2021/08/02 02:35:12;;;;;;;7.88;5.38;;;22.90;75.00;;;;;;4925779;29;20210;-72
2021/08/02 02:37:39;;;;;;;8.38;5.18;;;22.90;74.50;;;;;;4920273;29;20183;-73
2021/08/02 02:40:05;;;;;;;11.18;5.57;;;22.90;74.40;;;;;;4921707;29;20209;-73
2021/08/02 02:42:32;;;;;;;15.10;5.47;;;22.90;74.70;;;;;;4937763;29;20194;-73
2021/08/02 02:44:59;;;;;;;7.00;4.75;;;22.80;73.70;;;;;;4945370;28;20269;-73
2021/08/02 02:47:26;;;;;;;6.25;4.65;;;22.80;73.80;;;;;;4964389;28;20224;-73
2021/08/02 02:49:53;;;;;;;16.13;5.47;;;22.70;74.00;;;;;;5005141;28;20589;-73
2021/08/02 02:52:20;;;;;;;6.05;4.93;;;22.70;74.40;;;;;;4994144;28;20196;-73
2021/08/02 02:54:49;;;;;;;14.27;5.40;;;22.70;74.30;;;;;;5000771;28;20181;-73
2021/08/02 02:57:16;;;;;;;7.25;4.65;;;22.70;75.00;;;;;;4996552;28;20189;-73
2021/08/02 02:59:42;;;;;;;5.05;4.72;;;22.60;74.30;;;;;;5005721;28;20192;-73
2021/08/02 03:02:08;;;;;;;5.50;4.95;;;22.60;74.20;;;;;;5006324;28;20189;-73
2021/08/02 03:04:42;;;;;;;8.57;5.13;;;22.60;74.40;;;;;;5002891;28;20268;-74
2021/08/02 03:07:11;;;;;;;7.55;4.47;;;22.60;74.10;;;;;;4999932;28;20224;-73
2021/08/02 03:09:40;;;;;;;9.05;5.22;;;22.50;74.10;;;;;;5006554;28;20192;-73
2021/08/02 03:12:06;;;;;;;8.48;4.80;;;22.50;74.50;;;;;;4999847;28;20200;-73
2021/08/02 03:14:32;;;;;;;8.98;5.03;;;22.50;75.50;;;;;;4992617;28;20182;-73
2021/08/02 03:16:58;;;;;;;9.85;6.22;;;22.40;74.90;;;;;;5003950;28;20197;-72
2021/08/02 03:19:24;;;;;;;8.43;5.10;;;22.40;74.90;;;;;;5005292;28;20185;-73
2021/08/02 03:21:50;;;;;;;6.88;5.82;;;22.40;74.80;;;;;;4998914;28;20182;-73
2021/08/02 03:24:25;;;;;;;9.70;5.32;;;22.30;75.40;;;;;;4995637;28;20193;-73
2021/08/02 03:26:59;;;;;;;10.90;5.88;;;22.30;75.00;;;;;;5007206;28;20209;-73
2021/08/02 03:29:34;;;;;;;10.10;5.18;;;22.30;76.90;;;;;;4995999;28;20189;-73
2021/08/02 03:32:06;;;;;;;18.83;6.63;;;22.20;75.70;;;;;;4996508;28;20691;-73
2021/08/02 03:34:34;;;;;;;8.32;5.45;;;22.20;75.50;;;;;;5006130;28;20255;-73
2021/08/02 03:37:05;;;;;;;9.13;4.93;;;22.20;75.70;;;;;;5004947;28;20196;-73
2021/08/02 03:39:32;;;;;;;8.85;5.45;;;22.20;78.50;;;;;;5006667;28;20189;-73
2021/08/02 03:41:58;;;;;;;15.07;5.72;;;22.10;76.40;;;;;;5004770;28;20503;-73
2021/08/02 03:44:26;;;;;;;9.10;5.40;;;22.10;76.30;;;;;;5008259;28;20192;-74
2021/08/02 03:46:54;;;;;;;10.10;5.57;;;22.20;76.60;;;;;;5007198;28;20302;-73
2021/08/02 03:49:20;;;;;;;7.75;5.25;;;22.20;76.40;;;;;;5008283;28;20192;-73
2021/08/02 03:51:54;;;;;;;7.13;5.22;;;22.20;76.80;;;;;;5002500;28;20208;-73
2021/08/02 03:54:19;;;;;;;10.75;6.35;;;22.20;76.50;;;;;;5003776;28;20189;-73
2021/08/02 03:56:46;;;;;;;11.38;6.25;;;22.20;77.40;;;;;;5007495;28;20193;-72
2021/08/02 03:59:12;;;;;;;5.45;5.03;;;22.30;77.20;;;;;;4998735;28;20663;-72
2021/08/02 04:01:42;;;;;;;8.95;5.65;;;22.30;76.80;;;;;;5001645;28;20292;-72
2021/08/02 04:04:08;;;;;;;8.50;5.82;;;22.30;76.70;;;;;;5007754;28;20181;-72
2021/08/02 04:06:35;;;;;;;8.98;5.57;;;22.30;77.00;;;;;;5003933;28;20248;-72
2021/08/02 04:09:03;;;;;;;7.82;5.70;;;22.30;77.20;;;;;;5008586;28;20230;-73
2021/08/02 04:11:28;;;;;;;7.68;5.38;;;22.30;77.00;;;;;;5008606;28;20185;-73
2021/08/02 04:13:54;;;;;;;6.30;5.22;;;22.40;77.00;;;;;;5003506;28;20320;-73
2021/08/02 04:16:20;;;;;;;8.88;5.28;;;22.40;77.00;;;;;;4999275;28;20189;-74
2021/08/02 04:18:45;;;;;;;5.80;5.30;;;22.40;77.80;;;;;;5006884;28;20193;-72
2021/08/02 04:21:11;;;;;;;6.18;5.55;;;22.40;77.10;;;;;;5010001;28;20827;-72
2021/08/02 04:23:37;;;;;;;8.30;5.85;;;22.50;77.10;;;;;;5001542;28;20256;-73
2021/08/02 04:26:03;;;;;;;7.82;5.47;;;22.50;77.00;;;;;;5006780;28;20212;-73
2021/08/02 04:28:29;;;;;;;8.75;5.93;;;22.50;77.20;;;;;;5009317;28;20196;-73
2021/08/02 04:30:54;;;;;;;7.35;5.72;;;22.60;77.00;;;;;;5005324;28;20950;-72
2021/08/02 04:33:20;;;;;;;12.02;6.20;;;22.60;77.00;;;;;;5008189;28;20193;-72
2021/08/02 04:35:46;;;;;;;6.57;5.35;;;22.60;78.10;;;;;;5008943;28;20205;-72
2021/08/02 04:38:11;;;;;;;9.27;6.03;;;22.60;77.10;;;;;;5008936;28;20181;-73
2021/08/02 04:40:37;;;;;;;12.68;6.72;;;22.70;77.00;;;;;;5007112;28;20656;-72
2021/08/02 04:43:03;;;;;;;9.55;5.85;;;22.70;77.30;;;;;;5004931;28;20273;-72
2021/08/02 04:45:29;;;;;;;15.18;5.80;;;22.70;77.00;;;;;;5007153;28;20248;-72
2021/08/02 04:47:55;;;;;;;9.35;6.03;;;22.80;77.00;;;;;;5002073;28;20196;-72
2021/08/02 04:50:21;;;;;;;11.45;5.15;;;22.80;76.80;;;;;;5007923;28;20738;-73
2021/08/02 04:52:47;;;;;;;5.82;5.13;;;22.90;76.70;;;;;;5003297;28;20281;-73
2021/08/02 04:55:13;;;;;;;11.10;5.70;;;22.90;76.60;;;;;;5004281;28;20200;-74
2021/08/02 04:57:39;;;;;;;6.25;5.65;;;22.90;76.40;;;;;;5007429;28;20192;-74
2021/08/02 05:00:06;;;;;;;6.57;5.68;;;23.00;76.50;;;;;;5005916;28;20185;-74
2021/08/02 05:02:32;;;;;;;6.85;5.47;;;23.00;76.30;;;;;;5001629;28;20192;-74
2021/08/02 05:04:58;;;;;;;14.40;5.80;;;23.10;76.20;;;;;;5005059;28;20290;-76
2021/08/02 05:07:23;;;;;;;7.60;5.75;;;23.10;76.00;;;;;;5005772;28;20292;-75
2021/08/02 05:09:49;;;;;;;7.50;5.43;;;23.20;75.70;;;;;;5005238;28;20193;-75
2021/08/02 05:12:15;;;;;;;7.65;5.20;;;23.30;75.70;;;;;;5006637;28;20243;-74
2021/08/02 05:14:41;;;;;;;6.88;5.47;;;23.30;75.80;;;;;;5004957;28;20662;-74
2021/08/02 05:17:07;;;;;;;9.43;6.03;;;23.40;74.90;;;;;;5007957;28;20203;-74
2021/08/02 05:19:33;;;;;;;8.15;5.53;;;23.40;74.60;;;;;;5008776;28;20184;-74
2021/08/02 05:21:59;;;;;;;10.65;5.40;;;23.50;74.50;;;;;;5008895;28;20560;-73
2021/08/02 05:24:25;;;;;;;7.32;5.45;;;23.50;74.20;;;;;;5006549;28;20181;-72
2021/08/02 05:26:51;;;;;;;5.53;4.95;;;23.50;74.30;;;;;;5006987;28;20805;-72
2021/08/02 05:29:17;;;;;;;6.47;5.20;;;23.60;74.00;;;;;;5003787;28;20185;-73
2021/08/02 05:31:43;;;;;;;13.13;5.95;;;23.60;74.00;;;;;;5007572;28;20227;-73
2021/08/02 05:34:11;;;;;;;8.65;5.72;;;23.70;73.90;;;;;;5008354;28;20287;-73
2021/08/02 05:36:37;;;;;;;10.85;6.28;;;23.70;74.00;;;;;;5004740;28;20181;-73
2021/08/02 05:39:03;;;;;;;11.10;6.15;;;23.80;74.60;;;;;;5008307;28;20192;-74
2021/08/02 05:41:28;;;;;;;10.75;5.50;;;23.90;74.30;;;;;;5006346;28;20193;-74
2021/08/02 05:43:54;;;;;;;7.25;6.55;;;23.90;74.40;;;;;;5005894;28;20263;-73
2021/08/02 05:46:20;;;;;;;12.20;6.07;;;24.00;74.00;;;;;;5004611;28;20232;-73
2021/08/02 05:48:46;;;;;;;7.22;6.00;;;24.00;73.60;;;;;;5003065;28;20193;-75
2021/08/02 05:51:12;;;;;;;14.63;7.47;;;24.10;73.80;;;;;;5006941;28;20229;-73
2021/08/02 05:53:39;;;;;;;9.88;6.53;;;24.10;73.60;;;;;;5008048;28;20262;-76
2021/08/02 05:56:05;;;;;;;7.97;6.85;;;24.20;73.50;;;;;;5008093;28;20187;-76
2021/08/02 05:58:30;;;;;;;14.45;7.03;;;24.30;73.40;;;;;;4999851;28;20221;-75
2021/08/02 06:00:56;;;;;;;8.35;6.13;;;24.30;73.00;;;;;;5003112;28;20192;-75
2021/08/02 06:03:22;;;;;;;15.10;6.40;;;24.30;73.00;;;;;;5004611;28;20192;-74
2021/08/02 06:05:48;;;;;;;14.20;6.80;;;24.40;72.40;;;;;;5005872;28;20773;-74
2021/08/02 06:08:13;;;;;;;10.90;6.00;;;24.50;73.00;;;;;;5006770;28;20177;-74
2021/08/02 06:10:39;;;;;;;7.88;6.32;;;24.50;72.30;;;;;;5007910;28;20874;-75
2021/08/02 06:13:05;;;;;;;8.25;5.72;;;24.60;71.80;;;;;;5007248;28;20185;-74
2021/08/02 06:15:30;;;;;;;6.18;4.95;;;24.70;71.20;;;;;;5006214;28;20181;-74
2021/08/02 06:17:56;;;;;;;5.45;4.88;;;24.70;70.90;;;;;;5007508;28;20177;-74
2021/08/02 06:20:22;;;;;;;7.97;6.28;;;24.80;70.50;;;;;;5007879;28;20650;-74
2021/08/02 06:22:47;;;;;;;7.63;4.93;;;24.90;70.50;;;;;;4998821;28;20186;-74
2021/08/02 06:25:13;;;;;;;6.28;5.55;;;25.00;70.30;;;;;;5006440;28;20185;-74
2021/08/02 06:27:39;;;;;;;8.82;5.80;;;25.00;70.00;;;;;;5007704;28;20219;-74
2021/08/02 06:30:05;;;;;;;7.97;5.10;;;25.10;69.90;;;;;;5005173;28;20266;-74
2021/08/02 06:32:31;;;;;;;7.28;5.22;;;25.20;70.00;;;;;;5004650;28;20185;-74
2021/08/02 06:34:57;;;;;;;8.40;4.85;;;25.30;69.30;;;;;;5007364;28;20231;-74
2021/08/02 06:37:23;;;;;;;6.78;5.50;;;25.30;69.40;;;;;;5006761;28;20192;-72
2021/08/02 06:39:52;;;;;;;11.65;5.60;;;25.40;69.30;;;;;;5005536;28;20281;-72
2021/08/02 06:42:18;;;;;;;11.32;5.25;;;25.50;69.10;;;;;;5002277;28;20365;-73
2021/08/02 06:44:44;;;;;;;10.93;5.00;;;25.60;69.10;;;;;;5004395;28;20263;-75
2021/08/02 06:47:10;;;;;;;6.78;5.32;;;25.70;69.10;;;;;;5007080;28;20208;-72
2021/08/02 06:49:36;;;;;;;11.25;5.93;;;25.80;69.00;;;;;;5002494;28;20339;-74
2021/08/02 06:52:02;;;;;;;11.10;5.43;;;25.90;68.70;;;;;;5005678;28;20247;-74
2021/08/02 06:54:28;;;;;;;9.05;5.47;;;25.90;68.20;;;;;;5007826;28;20173;-74
2021/08/02 06:56:54;;;;;;;12.40;5.75;;;26.00;68.50;;;;;;5005998;28;20676;-74
2021/08/02 06:59:19;;;;;;;11.85;5.85;;;26.20;68.60;;;;;;5007209;28;20593;-74
2021/08/02 07:01:45;;;;;;;8.57;5.15;;;26.20;68.30;;;;;;5006630;28;20203;-74
2021/08/02 07:04:10;;;;;;;10.27;5.72;;;26.30;68.40;;;;;;5009587;28;20659;-74
2021/08/02 07:06:41;;;;;;;7.30;5.57;;;26.50;68.20;;;;;;5008027;28;20221;-74
2021/08/02 07:09:07;;;;;;;10.40;5.43;;;26.60;67.50;;;;;;5009332;28;20189;-74
2021/08/02 07:11:32;;;;;;;12.88;5.53;;;26.70;67.70;;;;;;5011227;28;20169;-74
2021/08/02 07:13:58;;;;;;;10.68;5.45;;;26.80;67.20;;;;;;5010582;28;20548;-74
2021/08/02 07:16:24;;;;;;;9.00;4.80;;;26.90;66.80;;;;;;5010977;28;20681;-74
2021/08/02 07:18:53;;;;;;;10.45;4.78;;;27.00;66.50;;;;;;5010861;28;20200;-74
2021/08/02 07:21:20;;;;;;;7.68;5.45;;;27.10;66.30;;;;;;5010830;28;20201;-74
2021/08/02 07:23:46;;;;;;;6.50;5.13;;;27.20;66.10;;;;;;5010741;28;20188;-74
2021/08/02 07:26:12;;;;;;;8.50;5.22;;;27.30;65.80;;;;;;5010328;28;20212;-74
2021/08/02 07:28:38;;;;;;;7.15;5.60;;;27.40;66.00;;;;;;5007235;28;20593;-74
2021/08/02 07:31:04;;;;;;;15.10;5.32;;;27.40;65.90;;;;;;5008139;28;20260;-74
2021/08/02 07:33:29;;;;;;;5.00;4.50;;;27.50;66.00;;;;;;5009785;28;20263;-74
2021/08/02 07:35:56;;;;;;;12.13;5.28;;;27.60;65.80;;;;;;5009585;28;20200;-73
2021/08/02 07:38:22;;;;;;;11.20;5.22;;;27.80;65.60;;;;;;5007737;28;20280;-73
2021/08/02 07:40:47;;;;;;;8.32;4.88;;;27.80;64.80;;;;;;5009751;28;20260;-73
2021/08/02 07:43:13;;;;;;;13.27;5.38;;;27.90;65.20;;;;;;5009789;28;20209;-73
2021/08/02 07:45:39;;;;;;;16.02;5.88;;;28.00;65.10;;;;;;5009503;28;20221;-73
2021/08/02 07:48:04;;;;;;;8.40;5.28;;;28.10;65.10;;;;;;5008022;28;20180;-73
2021/08/02 07:50:30;;;;;;;12.52;5.75;;;28.20;64.70;;;;;;5009708;28;20197;-73
2021/08/02 07:52:56;;;;;;;8.68;5.88;;;28.30;64.40;;;;;;5009457;28;20308;-74
2021/08/02 07:55:22;;;;;;;10.40;5.60;;;28.40;64.60;;;;;;5009702;28;20181;-73
2021/08/02 07:57:48;;;;;;;11.15;5.45;;;28.50;64.50;;;;;;5009302;28;20185;-73
2021/08/02 08:00:18;;;;;;;13.85;5.28;;;28.60;64.30;;;;;;5009741;28;20311;-73
2021/08/02 08:02:47;;;;;;;15.15;5.50;;;28.70;63.80;;;;;;5005729;28;20614;-73
2021/08/02 08:05:14;;;;;;;8.35;5.00;;;28.80;63.20;;;;;;5009573;28;20288;-73
2021/08/02 08:07:45;;;;;;;11.40;5.35;;;28.90;63.20;;;;;;5008950;28;20262;-74
2021/08/02 08:10:12;;;;;;;10.82;5.45;;;29.10;63.10;;;;;;5009495;28;20197;-73
2021/08/02 08:12:37;;;;;;;8.95;4.95;;;29.20;62.60;;;;;;5009344;28;20271;-73
2021/08/02 08:15:04;;;;;;;11.10;5.38;;;29.30;62.50;;;;;;5008509;28;20248;-73
2021/08/02 08:17:30;;;;;;;5.72;5.05;;;29.40;62.00;;;;;;5008567;28;20188;-74
2021/08/02 08:19:55;;;;;;;10.95;5.65;;;29.40;62.00;;;;;;5008707;28;20180;-73
2021/08/02 08:22:21;;;;;;;7.15;5.50;;;29.50;62.10;;;;;;5005680;28;20219;-73
2021/08/02 08:24:49;;;;;;;7.32;5.07;;;29.60;61.40;;;;;;5007464;28;20679;-73
2021/08/02 08:27:15;;;;;;;10.30;5.35;;;29.70;61.90;;;;;;5006616;28;20209;-73
2021/08/02 08:29:41;;;;;;;11.70;5.93;;;29.80;61.40;;;;;;5004700;28;20219;-73
2021/08/02 08:32:08;;;;;;;16.73;4.82;;;30.00;61.00;;;;;;5007392;28;20220;-73
2021/08/02 08:34:33;;;;;;;8.30;4.32;;;30.10;61.30;;;;;;5005858;28;20186;-73
2021/08/02 08:36:59;;;;;;;6.82;4.90;;;30.20;60.90;;;;;;5005116;28;20207;-72
2021/08/02 08:39:25;;;;;;;7.50;4.78;;;30.30;61.00;;;;;;5008763;28;20270;-73
2021/08/02 08:41:51;;;;;;;10.07;5.88;;;30.50;60.60;;;;;;5008757;28;20260;-73
2021/08/02 08:44:25;;;;;;;7.78;4.93;;;30.60;60.70;;;;;;5008562;28;20860;-74
2021/08/02 08:46:50;;;;;;;9.98;4.93;;;30.70;60.60;;;;;;4999311;28;20225;-73
2021/08/02 08:49:16;;;;;;;8.20;4.68;;;30.80;60.60;;;;;;5008499;28;20185;-73
2021/08/02 08:51:42;;;;;;;7.82;5.30;;;31.00;59.20;;;;;;5008146;28;20690;-73
2021/08/02 08:54:08;;;;;;;13.32;5.07;;;31.10;59.70;;;;;;5006754;28;20190;-73
2021/08/02 08:56:34;;;;;;;11.63;4.85;;;31.20;59.60;;;;;;5002582;28;20234;-73
2021/08/02 08:59:00;;;;;;;7.75;4.22;;;31.40;58.50;;;;;;5007933;28;20193;-73
2021/08/02 09:01:28;;;;;;;5.30;4.38;;;31.50;56.00;;;;;;5007508;28;20181;-73
2021/08/02 09:03:55;;;;;;;7.28;4.20;;;31.60;56.60;;;;;;5008394;28;20244;-72
2021/08/02 09:06:21;;;;;;;6.05;4.53;;;31.80;56.90;;;;;;5002274;28;20707;-73
2021/08/02 09:08:48;;;;;;;6.28;4.25;;;31.90;57.60;;;;;;5000396;28;20181;-78
2021/08/02 09:11:25;;;;;;;7.43;4.65;;;32.10;57.60;;;;;;5000685;28;20193;-78
2021/08/02 09:13:52;;;;;;;7.72;3.95;;;32.20;54.20;;;;;;4995490;28;20838;-78
2021/08/02 09:16:21;;;;;;;8.00;4.57;;;32.40;55.80;;;;;;4993535;28;20177;-77
2021/08/02 09:19:07;;;;;;;13.55;3.50;;;32.50;56.30;;;;;;5005225;28;20189;-73
2021/08/02 09:21:48;;;;;;;11.50;2.55;;;32.80;49.60;;;;;;5001227;28;20183;-73
2021/08/02 09:24:15;;;;;;;9.93;3.20;;;33.00;48.20;;;;;;5005673;28;20855;-73
2021/08/02 09:26:42;;;;;;;9.45;2.50;;;33.30;50.10;;;;;;5000937;28;20236;-73
2021/08/02 09:29:11;;;;;;;10.43;2.55;;;33.50;47.00;;;;;;4994082;28;20200;-73
2021/08/02 09:31:47;;;;;;;9.73;2.75;;;33.70;46.90;;;;;;4991873;28;20750;-73
2021/08/02 09:34:13;;;;;;;8.05;2.30;;;34.00;46.00;;;;;;5002966;28;20585;-73
2021/08/02 09:40:07;;;;;;;12.63;2.35;;;34.40;44.60;;;;;;5007414;28;20242;-73
2021/08/02 09:42:33;;;;;;;10.13;2.83;;;34.60;46.80;;;;;;4994036;28;20176;-73
2021/08/02 09:45:03;;;;;;;6.63;2.00;;;34.90;44.40;;;;;;5006305;28;20202;-73
2021/08/02 09:47:29;;;;;;;9.18;3.33;;;35.00;44.10;;;;;;5001410;28;20216;-73
2021/08/02 09:49:55;;;;;;;15.60;1.85;;;35.20;43.20;;;;;;5001648;28;20260;-73
2021/08/02 09:52:21;;;;;;;11.40;1.73;;;35.40;45.90;;;;;;5006307;28;20264;-73
2021/08/02 09:54:47;;;;;;;9.50;1.95;;;35.60;43.30;;;;;;5006302;28;20226;-73
2021/08/02 09:57:13;;;;;;;19.02;2.65;;;35.70;43.30;;;;;;5001534;28;20188;-73
2021/08/02 09:59:43;;;;;;;18.25;3.00;;;35.90;44.00;;;;;;5003412;28;20179;-73
2021/08/02 10:02:10;;;;;;;9.93;2.28;;;36.20;42.70;;;;;;5001856;28;20188;-73
2021/08/02 10:04:37;;;;;;;4.55;2.35;;;36.50;43.40;;;;;;5002568;28;20238;-73
2021/08/02 10:07:09;;;;;;;5.20;2.20;;;36.80;42.50;;;;;;5004381;28;20208;-72
2021/08/02 10:09:37;;;;;;;8.45;2.30;;;37.10;42.60;;;;;;5002151;28;20191;-73
2021/08/02 10:12:03;;;;;;;6.97;1.83;;;37.40;42.30;;;;;;5007348;28;20199;-73
2021/08/02 10:14:30;;;;;;;12.75;2.92;;;37.70;42.10;;;;;;5003531;28;20181;-73
2021/08/02 10:16:59;;;;;;;11.02;2.25;;;38.10;42.10;;;;;;5003541;28;20200;-72
2021/08/02 10:19:40;;;;;;;18.17;2.70;;;38.40;42.20;;;;;;5018735;28;20700;-73
2021/08/02 10:22:06;;;;;;;9.25;2.75;;;38.80;40.40;;;;;;5007298;28;20195;-73
2021/08/02 10:24:32;;;;;;;9.95;2.20;;;39.20;39.70;;;;;;5005205;28;20192;-71
2021/08/02 10:27:00;;;;;;;11.55;1.88;;;39.60;39.90;;;;;;5001829;28;20240;-73
2021/08/02 10:29:39;;;;;;;13.45;2.45;;;39.90;39.70;;;;;;5007246;28;20175;-73
2021/08/02 10:32:06;;;;;;;6.60;1.73;;;40.20;38.10;;;;;;5003040;28;20200;-72
2021/08/02 10:34:31;;;;;;;10.30;2.85;;;40.40;39.50;;;;;;4997312;28;20414;-73
2021/08/02 10:37:03;;;;;;;7.47;3.35;;;40.40;40.70;;;;;;5004625;28;20275;-72
2021/08/02 10:39:34;;;;;;;5.95;1.95;;;40.70;42.40;;;;;;5005013;28;20191;-73
2021/08/02 10:42:16;;;;;;;6.32;2.22;;;41.10;38.00;;;;;;5004604;28;20211;-73
2021/08/02 10:44:55;;;;;;;9.52;1.58;;;41.30;35.50;;;;;;5002795;28;20168;-75
2021/08/02 10:47:21;;;;;;;8.10;1.95;;;41.50;34.70;;;;;;5002871;28;20220;-73
2021/08/02 10:49:53;;;;;;;9.52;1.73;;;41.50;35.10;;;;;;5000662;28;20184;-73
2021/08/02 10:52:29;;;;;;;6.90;1.88;;;41.60;35.80;;;;;;5002372;28;20188;-73
2021/08/02 10:54:56;;;;;;;10.25;1.85;;;41.40;34.60;;;;;;5003542;28;20172;-73
2021/08/02 10:57:21;;;;;;;17.20;1.95;;;41.60;37.60;;;;;;4999890;28;20188;-74
2021/08/02 10:59:47;;;;;;;6.22;1.90;;;41.90;35.00;;;;;;5004253;28;20727;-74
2021/08/02 11:02:13;;;;;;;5.78;1.90;;;42.20;34.70;;;;;;5000263;28;20191;-74
2021/08/02 11:04:40;;;;;;;6.45;1.63;;;42.40;37.00;;;;;;5004871;28;20191;-72
2021/08/02 11:07:07;;;;;;;5.30;1.77;;;42.70;36.20;;;;;;5000297;28;20696;-72
2021/08/02 11:09:36;;;;;;;11.27;3.08;;;43.10;35.00;;;;;;5003635;28;20749;-75
2021/08/02 11:12:11;;;;;;;8.35;1.88;;;43.30;35.60;;;;;;5004789;28;20192;-72
2021/08/02 11:14:50;;;;;;;12.20;2.13;;;43.20;32.80;;;;;;5000509;28;20181;-72
2021/08/02 11:17:18;;;;;;;11.27;2.35;;;42.90;33.20;;;;;;5004207;28;20185;-75
2021/08/02 11:19:44;;;;;;;13.98;2.10;;;42.90;36.00;;;;;;5004981;28;20177;-75
2021/08/02 11:22:11;;;;;;;7.32;1.63;;;42.90;34.30;;;;;;5005498;28;20564;-75
2021/08/02 11:24:54;;;;;;;9.52;1.75;;;42.90;34.20;;;;;;4994419;28;20191;-74
2021/08/02 11:27:21;;;;;;;10.07;2.33;;;43.10;34.50;;;;;;5003885;28;20756;-75
2021/08/02 11:29:51;;;;;;;11.90;2.03;;;43.30;33.40;;;;;;5002990;28;20187;-73
2021/08/02 11:32:20;;;;;;;14.80;2.25;;;43.20;34.00;;;;;;5003364;28;20191;-74
2021/08/02 11:34:52;;;;;;;20.70;2.63;;;43.10;34.30;;;;;;4994738;28;20938;-72
2021/08/02 11:37:26;;;;;;;11.23;2.63;;;43.10;33.80;;;;;;5002092;28;20218;-72
2021/08/02 11:39:59;;;;;;;12.68;3.00;;;43.00;34.50;;;;;;5001618;28;20180;-73
2021/08/02 11:42:28;;;;;;;16.45;2.88;;;43.10;34.50;;;;;;5003527;28;20176;-72
2021/08/02 11:44:57;;;;;;;20.45;2.88;;;43.20;34.50;;;;;;4995421;28;20185;-72
2021/08/02 11:47:26;;;;;;;11.63;2.67;;;43.10;34.90;;;;;;5002554;28;20299;-73
2021/08/02 11:49:54;;;;;;;17.45;2.50;;;43.10;34.20;;;;;;5005383;28;20230;-73
2021/08/02 11:52:21;;;;;;;18.27;2.85;;;43.10;33.60;;;;;;5007231;28;20177;-74
2021/08/02 11:54:58;;;;;;;15.43;3.05;;;42.80;34.00;;;;;;5005646;28;20263;-74
2021/08/02 11:57:23;;;;;;;8.68;2.85;;;42.50;32.90;;;;;;5006529;28;20232;-74
2021/08/02 12:00:00;;;;;;;16.23;2.58;;;42.50;33.80;;;;;;5005366;28;20184;-75
2021/08/02 12:02:33;;;;;;;7.72;2.20;;;42.50;33.40;;;;;;5006780;28;20191;-74
2021/08/02 12:04:59;;;;;;;16.40;3.15;;;42.50;33.70;;;;;;5008514;28;20172;-74
2021/08/02 12:07:27;;;;;;;16.85;3.47;;;42.70;33.30;;;;;;5003305;28;20700;-73
2021/08/02 12:09:54;;;;;;;18.80;3.88;;;42.70;33.60;;;;;;5005677;28;20219;-73
2021/08/02 12:12:23;;;;;;;6.38;2.80;;;42.70;35.20;;;;;;5009571;28;20168;-74
2021/08/02 12:14:50;;;;;;;16.48;3.35;;;42.90;35.30;;;;;;5006372;28;20257;-73
2021/08/02 12:17:16;;;;;;;13.57;3.90;;;43.30;36.00;;;;;;5007908;28;20199;-73
2021/08/02 12:19:45;;;;;;;13.88;6.20;;;43.60;34.30;;;;;;5008040;28;20191;-73
2021/08/02 12:22:12;;;;;;;11.98;5.05;;;43.80;34.40;;;;;;5007925;28;20195;-72
2021/08/02 12:24:55;;;;;;;21.33;5.22;;;43.80;34.00;;;;;;5005938;28;20697;-73
2021/08/02 12:27:23;;;;;;;15.77;4.45;;;43.40;33.90;;;;;;5025262;28;20244;-76
2021/08/02 12:30:03;;;;;;;12.23;4.10;;;43.10;34.70;;;;;;5007706;28;20259;-75
2021/08/02 12:32:40;;;;;;;17.58;5.20;;;43.00;35.30;;;;;;5007028;28;20184;-73
2021/08/02 12:35:10;;;;;;;12.48;5.20;;;43.10;35.10;;;;;;5004125;28;20666;-74
2021/08/02 12:37:37;;;;;;;17.40;5.03;;;43.40;35.60;;;;;;5000719;28;20188;-74
2021/08/02 12:40:08;;;;;;;14.20;4.75;;;43.60;34.50;;;;;;5007279;28;20180;-74
2021/08/02 12:42:46;;;;;;;7.70;5.85;;;43.80;34.20;;;;;;5001263;28;20184;-74
2021/08/02 12:45:13;;;;;;;12.45;4.60;;;44.10;34.80;;;;;;5005232;28;20183;-74
2021/08/02 12:47:39;;;;;;;15.55;4.78;;;44.40;34.00;;;;;;5000748;28;20227;-74
2021/08/02 12:50:07;;;;;;;9.88;5.30;;;44.30;33.50;;;;;;4999785;28;20709;-74
2021/08/02 12:52:33;;;;;;;11.63;5.22;;;43.90;34.10;;;;;;4998990;28;20193;-73